sensor_id;sensor_type;location;lat;lon;timestamp;P1;durP1;ratioP1;P2;durP2;ratioP2
8411;SDS011;4243;49.296;11.348;2023-03-14T00:00:15;116.40;;;2.70;;
8411;SDS011;4243;49.296;11.348;2023-03-14T00:02:43;116.57;;;2.60;;
8411;SDS011;4243;49.296;11.348;2023-03-14T00:05:11;115.07;;;2.70;;
8411;SDS011;4243;49.296;11.348;2023-03-14T00:07:38;117.30;;;2.77;;
8411;SDS011;4243;49.296;11.348;2023-03-14T00:10:07;116.60;;;2.73;;
8411;SDS011;4243;49.296;11.348;2023-03-14T00:12:40;116.70;;;2.67;;
8411;SDS011;4243;49.296;11.348;2023-03-14T00:15:08;116.87;;;2.80;;
8411;SDS011;4243;49.296;11.348;2023-03-14T00:17:37;115.37;;;2.70;;
8411;SDS011;4243;49.296;11.348;2023-03-14T00:20:05;116.50;;;2.77;;
8411;SDS011;4243;49.296;11.348;2023-03-14T00:22:37;116.30;;;2.80;;
8411;SDS011;4243;49.296;11.348;2023-03-14T00:25:05;116.60;;;2.80;;
8411;SDS011;4243;49.296;11.348;2023-03-14T00:27:36;116.40;;;2.73;;
8411;SDS011;4243;49.296;11.348;2023-03-14T00:30:04;116.40;;;2.77;;
8411;SDS011;4243;49.296;11.348;2023-03-14T00:32:34;116.20;;;2.70;;
8411;SDS011;4243;49.296;11.348;2023-03-14T00:35:01;115.60;;;2.80;;
8411;SDS011;4243;49.296;11.348;2023-03-14T00:37:29;116.70;;;2.73;;
8411;SDS011;4243;49.296;11.348;2023-03-14T00:39:56;115.90;;;2.70;;
8411;SDS011;4243;49.296;11.348;2023-03-14T00:42:24;116.47;;;2.63;;
8411;SDS011;4243;49.296;11.348;2023-03-14T00:44:52;115.67;;;2.70;;
8411;SDS011;4243;49.296;11.348;2023-03-14T00:47:19;115.90;;;2.60;;
8411;SDS011;4243;49.296;11.348;2023-03-14T00:49:46;116.27;;;2.70;;
8411;SDS011;4243;49.296;11.348;2023-03-14T00:52:13;116.60;;;2.70;;
8411;SDS011;4243;49.296;11.348;2023-03-14T00:54:40;116.60;;;2.63;;
8411;SDS011;4243;49.296;11.348;2023-03-14T00:57:08;116.20;;;2.70;;
8411;SDS011;4243;49.296;11.348;2023-03-14T00:59:35;116.60;;;2.70;;
8411;SDS011;4243;49.296;11.348;2023-03-14T01:02:02;115.60;;;2.63;;
8411;SDS011;4243;49.296;11.348;2023-03-14T01:04:29;113.27;;;2.73;;
8411;SDS011;4243;49.296;11.348;2023-03-14T01:06:57;115.57;;;2.70;;
8411;SDS011;4243;49.296;11.348;2023-03-14T01:09:25;116.07;;;2.70;;
8411;SDS011;4243;49.296;11.348;2023-03-14T01:11:52;115.07;;;2.70;;
8411;SDS011;4243;49.296;11.348;2023-03-14T01:14:19;116.50;;;2.60;;
8411;SDS011;4243;49.296;11.348;2023-03-14T01:16:46;116.17;;;2.70;;
8411;SDS011;4243;49.296;11.348;2023-03-14T01:19:13;115.50;;;2.70;;
8411;SDS011;4243;49.296;11.348;2023-03-14T01:21:40;115.90;;;2.67;;
8411;SDS011;4243;49.296;11.348;2023-03-14T01:24:07;116.27;;;2.70;;
8411;SDS011;4243;49.296;11.348;2023-03-14T01:26:38;115.67;;;2.57;;
8411;SDS011;4243;49.296;11.348;2023-03-14T01:29:07;115.93;;;2.60;;
8411;SDS011;4243;49.296;11.348;2023-03-14T01:31:37;113.07;;;2.70;;
8411;SDS011;4243;49.296;11.348;2023-03-14T01:34:04;114.67;;;2.63;;
8411;SDS011;4243;49.296;11.348;2023-03-14T01:36:32;116.27;;;2.70;;
8411;SDS011;4243;49.296;11.348;2023-03-14T01:39:00;116.20;;;2.70;;
8411;SDS011;4243;49.296;11.348;2023-03-14T01:41:28;115.47;;;2.70;;
8411;SDS011;4243;49.296;11.348;2023-03-14T01:43:58;114.67;;;2.67;;
8411;SDS011;4243;49.296;11.348;2023-03-14T01:59:43;116.27;;;2.60;;
8411;SDS011;4243;49.296;11.348;2023-03-14T02:02:20;115.80;;;2.70;;
8411;SDS011;4243;49.296;11.348;2023-03-14T02:04:50;115.90;;;2.67;;
8411;SDS011;4243;49.296;11.348;2023-03-14T02:07:24;114.60;;;2.80;;
8411;SDS011;4243;49.296;11.348;2023-03-14T02:10:19;116.33;;;2.70;;
8411;SDS011;4243;49.296;11.348;2023-03-14T02:12:52;116.57;;;2.70;;
8411;SDS011;4243;49.296;11.348;2023-03-14T02:15:33;116.17;;;2.70;;
8411;SDS011;4243;49.296;11.348;2023-03-14T02:18:06;115.90;;;2.70;;
8411;SDS011;4243;49.296;11.348;2023-03-14T02:21:14;115.80;;;2.70;;
8411;SDS011;4243;49.296;11.348;2023-03-14T02:24:07;115.60;;;2.70;;
8411;SDS011;4243;49.296;11.348;2023-03-14T02:27:05;115.17;;;2.77;;
8411;SDS011;4243;49.296;11.348;2023-03-14T02:29:41;116.27;;;2.70;;
8411;SDS011;4243;49.296;11.348;2023-03-14T02:32:20;115.80;;;2.60;;
8411;SDS011;4243;49.296;11.348;2023-03-14T02:34:52;113.30;;;2.70;;
8411;SDS011;4243;49.296;11.348;2023-03-14T02:37:37;116.33;;;2.70;;
8411;SDS011;4243;49.296;11.348;2023-03-14T02:40:21;115.47;;;2.70;;
8411;SDS011;4243;49.296;11.348;2023-03-14T02:42:50;116.37;;;2.70;;
8411;SDS011;4243;49.296;11.348;2023-03-14T02:47:53;115.80;;;2.77;;
8411;SDS011;4243;49.296;11.348;2023-03-14T02:50:29;116.30;;;2.80;;
8411;SDS011;4243;49.296;11.348;2023-03-14T02:53:00;116.00;;;2.70;;
8411;SDS011;4243;49.296;11.348;2023-03-14T02:55:28;115.73;;;2.70;;
8411;SDS011;4243;49.296;11.348;2023-03-14T02:58:00;116.20;;;2.70;;
8411;SDS011;4243;49.296;11.348;2023-03-14T03:00:27;116.27;;;2.70;;
8411;SDS011;4243;49.296;11.348;2023-03-14T03:02:56;116.30;;;2.70;;
8411;SDS011;4243;49.296;11.348;2023-03-14T03:05:24;115.50;;;2.70;;
8411;SDS011;4243;49.296;11.348;2023-03-14T03:07:51;115.83;;;2.70;;
8411;SDS011;4243;49.296;11.348;2023-03-14T03:10:18;116.07;;;2.70;;
8411;SDS011;4243;49.296;11.348;2023-03-14T03:12:46;115.87;;;2.70;;
8411;SDS011;4243;49.296;11.348;2023-03-14T03:15:13;113.37;;;2.70;;
8411;SDS011;4243;49.296;11.348;2023-03-14T03:17:40;114.53;;;2.60;;
8411;SDS011;4243;49.296;11.348;2023-03-14T03:20:08;113.60;;;2.67;;
8411;SDS011;4243;49.296;11.348;2023-03-14T03:22:37;115.67;;;2.70;;
8411;SDS011;4243;49.296;11.348;2023-03-14T03:25:05;112.57;;;2.80;;
8411;SDS011;4243;49.296;11.348;2023-03-14T03:27:35;115.50;;;2.67;;
8411;SDS011;4243;49.296;11.348;2023-03-14T03:30:05;115.87;;;2.67;;
8411;SDS011;4243;49.296;11.348;2023-03-14T03:32:34;114.80;;;2.70;;
8411;SDS011;4243;49.296;11.348;2023-03-14T03:35:02;115.30;;;2.63;;
8411;SDS011;4243;49.296;11.348;2023-03-14T03:37:34;116.10;;;2.70;;
8411;SDS011;4243;49.296;11.348;2023-03-14T03:40:04;116.00;;;2.70;;
8411;SDS011;4243;49.296;11.348;2023-03-14T03:42:35;115.57;;;2.60;;
8411;SDS011;4243;49.296;11.348;2023-03-14T03:45:05;116.27;;;2.70;;
8411;SDS011;4243;49.296;11.348;2023-03-14T03:47:38;116.43;;;2.60;;
8411;SDS011;4243;49.296;11.348;2023-03-14T03:50:06;115.90;;;2.63;;
8411;SDS011;4243;49.296;11.348;2023-03-14T03:52:33;116.33;;;2.70;;
8411;SDS011;4243;49.296;11.348;2023-03-14T03:55:01;115.90;;;2.70;;
8411;SDS011;4243;49.296;11.348;2023-03-14T03:57:32;116.37;;;2.60;;
8411;SDS011;4243;49.296;11.348;2023-03-14T03:59:59;115.97;;;2.70;;
8411;SDS011;4243;49.296;11.348;2023-03-14T04:02:26;115.90;;;2.60;;
8411;SDS011;4243;49.296;11.348;2023-03-14T04:04:54;115.73;;;2.70;;
8411;SDS011;4243;49.296;11.348;2023-03-14T04:07:22;116.57;;;2.80;;
8411;SDS011;4243;49.296;11.348;2023-03-14T04:09:50;115.90;;;2.60;;
8411;SDS011;4243;49.296;11.348;2023-03-14T04:12:32;115.87;;;2.63;;
8411;SDS011;4243;49.296;11.348;2023-03-14T04:15:06;115.40;;;2.70;;
8411;SDS011;4243;49.296;11.348;2023-03-14T04:17:36;116.23;;;2.80;;
8411;SDS011;4243;49.296;11.348;2023-03-14T04:20:03;115.30;;;2.63;;
8411;SDS011;4243;49.296;11.348;2023-03-14T04:22:34;115.50;;;2.63;;
8411;SDS011;4243;49.296;11.348;2023-03-14T04:25:03;112.37;;;2.63;;
8411;SDS011;4243;49.296;11.348;2023-03-14T04:27:36;115.53;;;2.60;;
8411;SDS011;4243;49.296;11.348;2023-03-14T04:30:09;115.57;;;2.70;;
8411;SDS011;4243;49.296;11.348;2023-03-14T04:32:45;115.20;;;2.63;;
8411;SDS011;4243;49.296;11.348;2023-03-14T04:35:13;115.90;;;2.63;;
8411;SDS011;4243;49.296;11.348;2023-03-14T04:37:40;114.77;;;2.70;;
8411;SDS011;4243;49.296;11.348;2023-03-14T04:40:11;114.67;;;2.57;;
8411;SDS011;4243;49.296;11.348;2023-03-14T04:42:39;114.50;;;2.60;;
8411;SDS011;4243;49.296;11.348;2023-03-14T04:45:07;115.63;;;2.70;;
8411;SDS011;4243;49.296;11.348;2023-03-14T04:47:37;113.07;;;2.70;;
8411;SDS011;4243;49.296;11.348;2023-03-14T04:50:08;115.47;;;2.60;;
8411;SDS011;4243;49.296;11.348;2023-03-14T04:52:37;115.77;;;2.70;;
8411;SDS011;4243;49.296;11.348;2023-03-14T04:55:05;115.37;;;2.60;;
8411;SDS011;4243;49.296;11.348;2023-03-14T04:57:32;115.70;;;2.80;;
8411;SDS011;4243;49.296;11.348;2023-03-14T04:59:59;113.07;;;2.63;;
8411;SDS011;4243;49.296;11.348;2023-03-14T05:02:44;114.50;;;2.60;;
8411;SDS011;4243;49.296;11.348;2023-03-14T05:05:34;115.57;;;2.70;;
8411;SDS011;4243;49.296;11.348;2023-03-14T05:08:17;116.17;;;2.70;;
8411;SDS011;4243;49.296;11.348;2023-03-14T05:10:54;114.77;;;2.70;;
8411;SDS011;4243;49.296;11.348;2023-03-14T05:13:56;114.47;;;2.70;;
8411;SDS011;4243;49.296;11.348;2023-03-14T05:16:40;115.87;;;2.63;;
8411;SDS011;4243;49.296;11.348;2023-03-14T05:19:28;115.40;;;2.70;;
8411;SDS011;4243;49.296;11.348;2023-03-14T05:22:14;115.30;;;2.70;;
8411;SDS011;4243;49.296;11.348;2023-03-14T05:25:04;115.40;;;2.70;;
8411;SDS011;4243;49.296;11.348;2023-03-14T05:27:48;114.20;;;2.70;;
8411;SDS011;4243;49.296;11.348;2023-03-14T05:30:31;111.90;;;2.67;;
8411;SDS011;4243;49.296;11.348;2023-03-14T05:33:19;115.60;;;2.70;;
8411;SDS011;4243;49.296;11.348;2023-03-14T05:36:09;115.20;;;2.60;;
8411;SDS011;4243;49.296;11.348;2023-03-14T05:38:55;115.03;;;2.67;;
8411;SDS011;4243;49.296;11.348;2023-03-14T05:41:37;114.57;;;2.67;;
8411;SDS011;4243;49.296;11.348;2023-03-14T05:44:24;115.40;;;2.70;;
8411;SDS011;4243;49.296;11.348;2023-03-14T05:47:10;115.60;;;2.70;;
8411;SDS011;4243;49.296;11.348;2023-03-14T05:49:40;115.67;;;2.63;;
8411;SDS011;4243;49.296;11.348;2023-03-14T05:52:17;115.77;;;2.67;;
8411;SDS011;4243;49.296;11.348;2023-03-14T05:54:56;115.57;;;2.70;;
8411;SDS011;4243;49.296;11.348;2023-03-14T05:57:50;115.80;;;2.70;;
8411;SDS011;4243;49.296;11.348;2023-03-14T06:00:23;115.77;;;2.70;;
8411;SDS011;4243;49.296;11.348;2023-03-14T06:03:01;115.60;;;2.63;;
8411;SDS011;4243;49.296;11.348;2023-03-14T06:05:34;116.13;;;2.70;;
8411;SDS011;4243;49.296;11.348;2023-03-14T06:08:01;115.13;;;2.70;;
8411;SDS011;4243;49.296;11.348;2023-03-14T06:10:30;114.90;;;2.70;;
8411;SDS011;4243;49.296;11.348;2023-03-14T06:12:58;114.67;;;2.73;;
8411;SDS011;4243;49.296;11.348;2023-03-14T06:15:25;114.70;;;2.73;;
8411;SDS011;4243;49.296;11.348;2023-03-14T06:17:55;115.20;;;2.63;;
8411;SDS011;4243;49.296;11.348;2023-03-14T06:20:23;115.20;;;2.70;;
8411;SDS011;4243;49.296;11.348;2023-03-14T06:22:50;114.47;;;2.70;;
8411;SDS011;4243;49.296;11.348;2023-03-14T06:25:17;115.67;;;2.67;;
8411;SDS011;4243;49.296;11.348;2023-03-14T06:27:47;113.43;;;2.70;;
8411;SDS011;4243;49.296;11.348;2023-03-14T06:30:15;114.70;;;2.70;;
8411;SDS011;4243;49.296;11.348;2023-03-14T06:32:43;115.30;;;2.70;;
8411;SDS011;4243;49.296;11.348;2023-03-14T06:35:13;115.57;;;2.63;;
8411;SDS011;4243;49.296;11.348;2023-03-14T06:37:42;115.67;;;2.67;;
8411;SDS011;4243;49.296;11.348;2023-03-14T06:40:11;112.57;;;2.60;;
8411;SDS011;4243;49.296;11.348;2023-03-14T06:43:04;115.67;;;2.67;;
8411;SDS011;4243;49.296;11.348;2023-03-14T06:45:34;115.27;;;2.67;;
8411;SDS011;4243;49.296;11.348;2023-03-14T06:48:02;114.80;;;2.77;;
8411;SDS011;4243;49.296;11.348;2023-03-14T06:50:38;115.50;;;2.67;;
8411;SDS011;4243;49.296;11.348;2023-03-14T06:53:05;115.77;;;2.60;;
8411;SDS011;4243;49.296;11.348;2023-03-14T06:55:36;115.77;;;2.60;;
8411;SDS011;4243;49.296;11.348;2023-03-14T06:58:05;115.70;;;2.67;;
8411;SDS011;4243;49.296;11.348;2023-03-14T07:00:39;115.57;;;2.63;;
8411;SDS011;4243;49.296;11.348;2023-03-14T07:03:07;116.20;;;2.60;;
8411;SDS011;4243;49.296;11.348;2023-03-14T07:05:40;114.77;;;2.60;;
8411;SDS011;4243;49.296;11.348;2023-03-14T07:08:08;114.57;;;2.63;;
8411;SDS011;4243;49.296;11.348;2023-03-14T07:10:35;115.30;;;2.70;;
8411;SDS011;4243;49.296;11.348;2023-03-14T07:13:05;115.10;;;2.60;;
8411;SDS011;4243;49.296;11.348;2023-03-14T07:15:37;116.07;;;2.67;;
8411;SDS011;4243;49.296;11.348;2023-03-14T07:18:08;115.40;;;2.57;;
8411;SDS011;4243;49.296;11.348;2023-03-14T07:20:37;115.97;;;2.60;;
8411;SDS011;4243;49.296;11.348;2023-03-14T07:23:06;115.77;;;2.67;;
8411;SDS011;4243;49.296;11.348;2023-03-14T07:25:39;112.47;;;2.60;;
8411;SDS011;4243;49.296;11.348;2023-03-14T07:28:06;114.60;;;2.60;;
8411;SDS011;4243;49.296;11.348;2023-03-14T07:30:37;115.87;;;2.60;;
8411;SDS011;4243;49.296;11.348;2023-03-14T07:33:12;115.50;;;2.60;;
8411;SDS011;4243;49.296;11.348;2023-03-14T07:35:40;116.27;;;2.60;;
8411;SDS011;4243;49.296;11.348;2023-03-14T07:38:08;116.07;;;2.60;;
8411;SDS011;4243;49.296;11.348;2023-03-14T07:40:43;116.07;;;2.53;;
8411;SDS011;4243;49.296;11.348;2023-03-14T07:43:10;115.60;;;2.57;;
8411;SDS011;4243;49.296;11.348;2023-03-14T07:45:45;116.10;;;2.60;;
8411;SDS011;4243;49.296;11.348;2023-03-14T07:48:16;116.00;;;2.60;;
8411;SDS011;4243;49.296;11.348;2023-03-14T07:50:43;116.13;;;2.60;;
8411;SDS011;4243;49.296;11.348;2023-03-14T07:53:14;116.17;;;2.60;;
8411;SDS011;4243;49.296;11.348;2023-03-14T07:55:41;116.07;;;2.60;;
8411;SDS011;4243;49.296;11.348;2023-03-14T07:58:09;116.40;;;2.60;;
8411;SDS011;4243;49.296;11.348;2023-03-14T08:00:36;115.57;;;2.60;;
8411;SDS011;4243;49.296;11.348;2023-03-14T08:03:04;116.23;;;2.67;;
8411;SDS011;4243;49.296;11.348;2023-03-14T08:05:34;114.73;;;2.60;;
8411;SDS011;4243;49.296;11.348;2023-03-14T08:08:03;116.40;;;2.63;;
8411;SDS011;4243;49.296;11.348;2023-03-14T08:10:30;115.97;;;2.60;;
8411;SDS011;4243;49.296;11.348;2023-03-14T08:12:59;115.87;;;2.70;;
8411;SDS011;4243;49.296;11.348;2023-03-14T08:15:28;114.43;;;2.63;;
8411;SDS011;4243;49.296;11.348;2023-03-14T08:17:56;115.77;;;2.57;;
8411;SDS011;4243;49.296;11.348;2023-03-14T08:20:25;116.27;;;2.77;;
8411;SDS011;4243;49.296;11.348;2023-03-14T08:22:56;115.97;;;2.60;;
8411;SDS011;4243;49.296;11.348;2023-03-14T08:25:27;115.47;;;2.53;;
8411;SDS011;4243;49.296;11.348;2023-03-14T08:27:55;116.47;;;2.67;;
8411;SDS011;4243;49.296;11.348;2023-03-14T08:30:23;115.60;;;2.50;;
8411;SDS011;4243;49.296;11.348;2023-03-14T08:32:51;115.87;;;2.57;;
8411;SDS011;4243;49.296;11.348;2023-03-14T08:35:18;115.40;;;2.60;;
8411;SDS011;4243;49.296;11.348;2023-03-14T08:37:46;116.07;;;2.53;;
8411;SDS011;4243;49.296;11.348;2023-03-14T08:40:14;115.60;;;2.60;;
8411;SDS011;4243;49.296;11.348;2023-03-14T08:42:43;115.87;;;2.50;;
8411;SDS011;4243;49.296;11.348;2023-03-14T08:45:11;116.17;;;2.60;;
8411;SDS011;4243;49.296;11.348;2023-03-14T08:47:45;115.93;;;2.53;;
8411;SDS011;4243;49.296;11.348;2023-03-14T08:50:12;115.30;;;2.50;;
8411;SDS011;4243;49.296;11.348;2023-03-14T08:52:42;114.67;;;2.60;;
8411;SDS011;4243;49.296;11.348;2023-03-14T08:55:09;116.60;;;2.60;;
8411;SDS011;4243;49.296;11.348;2023-03-14T08:57:37;115.57;;;2.57;;
8411;SDS011;4243;49.296;11.348;2023-03-14T09:00:04;116.10;;;2.50;;
8411;SDS011;4243;49.296;11.348;2023-03-14T09:03:48;115.37;;;2.53;;
8411;SDS011;4243;49.296;11.348;2023-03-14T09:06:16;115.67;;;2.50;;
8411;SDS011;4243;49.296;11.348;2023-03-14T09:08:44;116.57;;;2.40;;
8411;SDS011;4243;49.296;11.348;2023-03-14T09:11:12;115.47;;;2.60;;
8411;SDS011;4243;49.296;11.348;2023-03-14T09:13:40;116.80;;;2.50;;
8411;SDS011;4243;49.296;11.348;2023-03-14T09:16:07;117.23;;;2.60;;
8411;SDS011;4243;49.296;11.348;2023-03-14T09:18:35;115.67;;;2.53;;
8411;SDS011;4243;49.296;11.348;2023-03-14T09:21:03;117.27;;;2.70;;
8411;SDS011;4243;49.296;11.348;2023-03-14T09:23:30;117.07;;;2.50;;
8411;SDS011;4243;49.296;11.348;2023-03-14T09:25:57;116.57;;;2.40;;
8411;SDS011;4243;49.296;11.348;2023-03-14T09:28:26;116.53;;;2.50;;
8411;SDS011;4243;49.296;11.348;2023-03-14T09:30:54;116.37;;;2.57;;
8411;SDS011;4243;49.296;11.348;2023-03-14T09:33:21;116.70;;;2.40;;
8411;SDS011;4243;49.296;11.348;2023-03-14T09:35:49;116.90;;;2.47;;
8411;SDS011;4243;49.296;11.348;2023-03-14T09:38:16;115.50;;;2.40;;
8411;SDS011;4243;49.296;11.348;2023-03-14T09:40:43;117.67;;;2.47;;
8411;SDS011;4243;49.296;11.348;2023-03-14T09:43:11;116.00;;;2.50;;
8411;SDS011;4243;49.296;11.348;2023-03-14T09:45:41;117.27;;;2.43;;
8411;SDS011;4243;49.296;11.348;2023-03-14T09:48:16;117.37;;;2.50;;
8411;SDS011;4243;49.296;11.348;2023-03-14T09:50:54;114.80;;;2.40;;
8411;SDS011;4243;49.296;11.348;2023-03-14T09:53:37;117.27;;;2.40;;
8411;SDS011;4243;49.296;11.348;2023-03-14T09:56:14;117.10;;;2.37;;
8411;SDS011;4243;49.296;11.348;2023-03-14T09:58:50;116.40;;;2.30;;
8411;SDS011;4243;49.296;11.348;2023-03-14T10:01:25;116.77;;;2.50;;
8411;SDS011;4243;49.296;11.348;2023-03-14T10:04:10;116.50;;;2.33;;
8411;SDS011;4243;49.296;11.348;2023-03-14T10:06:49;116.27;;;2.50;;
8411;SDS011;4243;49.296;11.348;2023-03-14T10:09:20;116.37;;;2.57;;
8411;SDS011;4243;49.296;11.348;2023-03-14T10:11:56;116.70;;;2.57;;
8411;SDS011;4243;49.296;11.348;2023-03-14T10:14:28;115.57;;;2.43;;
8411;SDS011;4243;49.296;11.348;2023-03-14T10:17:10;117.20;;;2.50;;
8411;SDS011;4243;49.296;11.348;2023-03-14T10:19:53;115.77;;;2.60;;
8411;SDS011;4243;49.296;11.348;2023-03-14T10:22:27;117.27;;;2.50;;
8411;SDS011;4243;49.296;11.348;2023-03-14T10:25:00;115.87;;;2.53;;
8411;SDS011;4243;49.296;11.348;2023-03-14T10:28:34;116.40;;;2.40;;
8411;SDS011;4243;49.296;11.348;2023-03-14T10:31:46;115.00;;;2.50;;
8411;SDS011;4243;49.296;11.348;2023-03-14T10:34:31;116.40;;;2.50;;
8411;SDS011;4243;49.296;11.348;2023-03-14T10:37:17;116.53;;;2.50;;
8411;SDS011;4243;49.296;11.348;2023-03-14T10:39:55;116.40;;;2.50;;
8411;SDS011;4243;49.296;11.348;2023-03-14T10:42:32;116.10;;;2.70;;
8411;SDS011;4243;49.296;11.348;2023-03-14T10:45:52;117.53;;;2.53;;
8411;SDS011;4243;49.296;11.348;2023-03-14T10:50:55;116.33;;;2.40;;
8411;SDS011;4243;49.296;11.348;2023-03-14T10:53:47;116.97;;;2.37;;
8411;SDS011;4243;49.296;11.348;2023-03-14T10:56:55;117.20;;;2.50;;
8411;SDS011;4243;49.296;11.348;2023-03-14T10:59:27;115.50;;;2.37;;
8411;SDS011;4243;49.296;11.348;2023-03-14T11:08:07;115.60;;;2.33;;
8411;SDS011;4243;49.296;11.348;2023-03-14T11:10:39;116.57;;;2.30;;
8411;SDS011;4243;49.296;11.348;2023-03-14T11:15:58;115.67;;;2.47;;
8411;SDS011;4243;49.296;11.348;2023-03-14T11:19:00;115.37;;;2.37;;
8411;SDS011;4243;49.296;11.348;2023-03-14T11:22:37;115.80;;;2.47;;
8411;SDS011;4243;49.296;11.348;2023-03-14T11:25:54;116.20;;;2.37;;
8411;SDS011;4243;49.296;11.348;2023-03-14T11:28:23;115.40;;;2.47;;
8411;SDS011;4243;49.296;11.348;2023-03-14T11:31:16;115.87;;;2.40;;
8411;SDS011;4243;49.296;11.348;2023-03-14T11:36:37;117.17;;;2.40;;
8411;SDS011;4243;49.296;11.348;2023-03-14T11:39:17;116.27;;;2.40;;
8411;SDS011;4243;49.296;11.348;2023-03-14T11:41:53;117.27;;;2.40;;
8411;SDS011;4243;49.296;11.348;2023-03-14T11:44:32;115.77;;;2.40;;
8411;SDS011;4243;49.296;11.348;2023-03-14T11:47:28;116.40;;;2.50;;
8411;SDS011;4243;49.296;11.348;2023-03-14T11:50:15;115.70;;;2.33;;
8411;SDS011;4243;49.296;11.348;2023-03-14T11:52:50;115.37;;;2.30;;
8411;SDS011;4243;49.296;11.348;2023-03-14T11:55:37;116.67;;;2.30;;
8411;SDS011;4243;49.296;11.348;2023-03-14T11:58:16;116.57;;;2.40;;
8411;SDS011;4243;49.296;11.348;2023-03-14T12:00:57;116.50;;;2.30;;
8411;SDS011;4243;49.296;11.348;2023-03-14T12:03:41;115.77;;;2.40;;
8411;SDS011;4243;49.296;11.348;2023-03-14T12:09:18;115.70;;;2.47;;
8411;SDS011;4243;49.296;11.348;2023-03-14T12:11:58;116.37;;;2.90;;
8411;SDS011;4243;49.296;11.348;2023-03-14T12:14:34;115.60;;;2.37;;
8411;SDS011;4243;49.296;11.348;2023-03-14T12:17:21;116.17;;;2.40;;
8411;SDS011;4243;49.296;11.348;2023-03-14T12:20:01;116.00;;;2.33;;
8411;SDS011;4243;49.296;11.348;2023-03-14T12:22:47;115.40;;;2.20;;
8411;SDS011;4243;49.296;11.348;2023-03-14T12:25:36;115.77;;;2.30;;
8411;SDS011;4243;49.296;11.348;2023-03-14T12:28:12;115.87;;;2.40;;
8411;SDS011;4243;49.296;11.348;2023-03-14T12:31:00;116.20;;;2.30;;
8411;SDS011;4243;49.296;11.348;2023-03-14T12:39:19;116.07;;;2.30;;
8411;SDS011;4243;49.296;11.348;2023-03-14T12:42:45;116.17;;;2.30;;
8411;SDS011;4243;49.296;11.348;2023-03-14T12:45:26;115.70;;;2.60;;
8411;SDS011;4243;49.296;11.348;2023-03-14T12:48:09;115.37;;;2.33;;
8411;SDS011;4243;49.296;11.348;2023-03-14T12:50:56;115.60;;;2.40;;
8411;SDS011;4243;49.296;11.348;2023-03-14T12:56:28;115.33;;;2.20;;
8411;SDS011;4243;49.296;11.348;2023-03-14T13:00:19;114.97;;;2.30;;
8411;SDS011;4243;49.296;11.348;2023-03-14T13:05:54;116.27;;;2.23;;
8411;SDS011;4243;49.296;11.348;2023-03-14T13:11:18;116.10;;;2.27;;
8411;SDS011;4243;49.296;11.348;2023-03-14T13:13:56;114.47;;;2.30;;
8411;SDS011;4243;49.296;11.348;2023-03-14T13:16:25;114.77;;;2.30;;
8411;SDS011;4243;49.296;11.348;2023-03-14T13:19:03;113.60;;;2.30;;
8411;SDS011;4243;49.296;11.348;2023-03-14T13:21:45;116.07;;;2.30;;
8411;SDS011;4243;49.296;11.348;2023-03-14T13:24:22;115.90;;;2.30;;
8411;SDS011;4243;49.296;11.348;2023-03-14T13:26:56;116.00;;;2.33;;
8411;SDS011;4243;49.296;11.348;2023-03-14T13:29:25;116.80;;;2.70;;
8411;SDS011;4243;49.296;11.348;2023-03-14T13:31:59;117.07;;;2.40;;
8411;SDS011;4243;49.296;11.348;2023-03-14T13:34:42;116.70;;;2.50;;
8411;SDS011;4243;49.296;11.348;2023-03-14T13:37:28;117.17;;;2.57;;
8411;SDS011;4243;49.296;11.348;2023-03-14T13:39:56;116.67;;;2.53;;
8411;SDS011;4243;49.296;11.348;2023-03-14T13:42:27;117.20;;;2.50;;
8411;SDS011;4243;49.296;11.348;2023-03-14T13:44:56;116.90;;;2.60;;
8411;SDS011;4243;49.296;11.348;2023-03-14T13:47:24;116.27;;;2.50;;
8411;SDS011;4243;49.296;11.348;2023-03-14T13:49:52;117.30;;;2.60;;
8411;SDS011;4243;49.296;11.348;2023-03-14T13:52:36;117.77;;;2.60;;
8411;SDS011;4243;49.296;11.348;2023-03-14T13:55:05;117.40;;;2.60;;
8411;SDS011;4243;49.296;11.348;2023-03-14T13:57:49;117.37;;;2.60;;
8411;SDS011;4243;49.296;11.348;2023-03-14T14:00:22;116.80;;;2.57;;
8411;SDS011;4243;49.296;11.348;2023-03-14T14:02:53;116.77;;;2.50;;
8411;SDS011;4243;49.296;11.348;2023-03-14T14:05:25;117.27;;;2.57;;
8411;SDS011;4243;49.296;11.348;2023-03-14T14:07:55;117.70;;;2.60;;
8411;SDS011;4243;49.296;11.348;2023-03-14T14:10:25;117.03;;;2.60;;
8411;SDS011;4243;49.296;11.348;2023-03-14T14:12:57;117.17;;;2.63;;
8411;SDS011;4243;49.296;11.348;2023-03-14T14:15:32;117.27;;;2.60;;
8411;SDS011;4243;49.296;11.348;2023-03-14T14:18:10;116.50;;;2.60;;
8411;SDS011;4243;49.296;11.348;2023-03-14T14:20:45;116.87;;;2.70;;
8411;SDS011;4243;49.296;11.348;2023-03-14T14:23:15;116.40;;;2.70;;
8411;SDS011;4243;49.296;11.348;2023-03-14T14:25:55;116.30;;;2.67;;
8411;SDS011;4243;49.296;11.348;2023-03-14T14:28:31;116.67;;;2.77;;
8411;SDS011;4243;49.296;11.348;2023-03-14T14:33:45;116.23;;;2.63;;
8411;SDS011;4243;49.296;11.348;2023-03-14T14:39:05;116.50;;;2.63;;
8411;SDS011;4243;49.296;11.348;2023-03-14T14:41:43;116.80;;;2.70;;
8411;SDS011;4243;49.296;11.348;2023-03-14T14:44:16;116.37;;;2.63;;
8411;SDS011;4243;49.296;11.348;2023-03-14T14:46:55;115.67;;;2.63;;
8411;SDS011;4243;49.296;11.348;2023-03-14T14:49:32;116.00;;;2.70;;
8411;SDS011;4243;49.296;11.348;2023-03-14T14:52:02;116.47;;;2.70;;
8411;SDS011;4243;49.296;11.348;2023-03-14T14:54:59;115.87;;;2.73;;
8411;SDS011;4243;49.296;11.348;2023-03-14T14:57:31;116.67;;;2.70;;
8411;SDS011;4243;49.296;11.348;2023-03-14T15:00:07;115.80;;;2.77;;
8411;SDS011;4243;49.296;11.348;2023-03-14T15:02:51;115.47;;;2.67;;
8411;SDS011;4243;49.296;11.348;2023-03-14T15:05:26;116.00;;;2.80;;
8411;SDS011;4243;49.296;11.348;2023-03-14T15:07:56;116.10;;;2.77;;
8411;SDS011;4243;49.296;11.348;2023-03-14T15:10:24;116.00;;;2.70;;
8411;SDS011;4243;49.296;11.348;2023-03-14T15:12:52;115.97;;;2.80;;
8411;SDS011;4243;49.296;11.348;2023-03-14T15:15:19;116.57;;;2.80;;
8411;SDS011;4243;49.296;11.348;2023-03-14T15:17:46;115.97;;;2.77;;
8411;SDS011;4243;49.296;11.348;2023-03-14T15:20:14;115.60;;;2.70;;
8411;SDS011;4243;49.296;11.348;2023-03-14T15:22:45;116.00;;;2.77;;
8411;SDS011;4243;49.296;11.348;2023-03-14T15:25:13;116.00;;;2.80;;
8411;SDS011;4243;49.296;11.348;2023-03-14T15:28:00;116.37;;;2.77;;
8411;SDS011;4243;49.296;11.348;2023-03-14T15:30:28;116.13;;;2.80;;
8411;SDS011;4243;49.296;11.348;2023-03-14T15:32:55;115.90;;;2.80;;
8411;SDS011;4243;49.296;11.348;2023-03-14T15:35:23;116.07;;;2.80;;
8411;SDS011;4243;49.296;11.348;2023-03-14T15:37:50;115.70;;;2.73;;
8411;SDS011;4243;49.296;11.348;2023-03-14T15:40:20;114.57;;;2.77;;
8411;SDS011;4243;49.296;11.348;2023-03-14T15:42:51;115.90;;;2.77;;
8411;SDS011;4243;49.296;11.348;2023-03-14T15:45:18;115.07;;;2.70;;
8411;SDS011;4243;49.296;11.348;2023-03-14T15:47:45;115.47;;;2.70;;
8411;SDS011;4243;49.296;11.348;2023-03-14T15:50:12;115.87;;;2.73;;
8411;SDS011;4243;49.296;11.348;2023-03-14T15:52:39;115.90;;;2.77;;
8411;SDS011;4243;49.296;11.348;2023-03-14T15:55:06;116.13;;;2.70;;
8411;SDS011;4243;49.296;11.348;2023-03-14T15:57:33;115.90;;;2.77;;
8411;SDS011;4243;49.296;11.348;2023-03-14T16:00:01;114.87;;;2.80;;
8411;SDS011;4243;49.296;11.348;2023-03-14T16:02:35;115.17;;;2.77;;
8411;SDS011;4243;49.296;11.348;2023-03-14T16:05:06;116.10;;;2.83;;
8411;SDS011;4243;49.296;11.348;2023-03-14T16:07:38;114.57;;;2.67;;